Time;durP1;ratioP1;P1;durP2;ratioP2;P2;SDS_P1;SDS_P2;PMS_P1;PMS_P2;Temp;Humidity;BMP_temperature;BMP_pressure;BME280_temperature;BME280_humidity;BME280_pressure;Samples;Min_cycle;Max_cycle;Signal;HPM_P1;HPM_P2
2021/09/01 00:02:14;;;;;;;10.70;6.65;;;15.40;99.90;;;;;;5073481;28;20048;-64
2021/09/01 00:04:40;;;;;;;11.75;7.15;;;15.40;99.90;;;;;;5056179;28;20059;-63
2021/09/01 00:07:06;;;;;;;9.65;6.65;;;15.40;99.90;;;;;;5073756;28;20056;-64
2021/09/01 00:09:32;;;;;;;10.32;6.72;;;15.40;99.90;;;;;;5073925;28;20521;-63
2021/09/01 00:11:59;;;;;;;12.27;6.68;;;15.40;99.90;;;;;;5055957;28;20036;-63
2021/09/01 00:14:25;;;;;;;11.43;7.38;;;15.40;99.90;;;;;;5073956;28;20028;-64
2021/09/01 00:16:51;;;;;;;10.57;7.28;;;15.30;99.90;;;;;;5055918;28;20064;-64
2021/09/01 00:19:17;;;;;;;12.65;7.57;;;15.30;99.90;;;;;;5073525;28;20029;-64
2021/09/01 00:21:43;;;;;;;14.25;8.55;;;15.20;99.90;;;;;;5074036;28;20111;-63
2021/09/01 00:24:09;;;;;;;12.85;8.75;;;15.20;99.90;;;;;;5073751;28;20032;-64
2021/09/01 00:26:35;;;;;;;11.18;8.68;;;15.20;99.90;;;;;;5073667;28;20403;-64
2021/09/01 00:29:01;;;;;;;14.98;9.50;;;15.20;99.90;;;;;;5073782;28;20056;-64
2021/09/01 00:31:33;;;;;;;14.82;9.10;;;15.30;99.90;;;;;;5073577;28;20025;-64
2021/09/01 00:33:59;;;;;;;13.45;8.48;;;15.30;99.90;;;;;;5073507;28;20558;-64
2021/09/01 00:36:28;;;;;;;10.68;8.13;;;15.30;99.90;;;;;;5073460;28;20056;-63
2021/09/01 00:38:54;;;;;;;10.85;8.73;;;15.30;99.90;;;;;;5073399;28;20024;-64
2021/09/01 00:41:22;;;;;;;13.18;7.68;;;15.40;99.90;;;;;;5073118;28;20050;-64
2021/09/01 00:43:53;;;;;;;12.13;7.90;;;15.40;99.90;;;;;;5073378;28;20027;-64
2021/09/01 00:46:19;;;;;;;11.13;7.53;;;15.40;99.90;;;;;;5073423;28;20039;-64
2021/09/01 00:48:46;;;;;;;13.05;7.88;;;15.50;99.90;;;;;;5073535;28;20028;-66
2021/09/01 00:51:12;;;;;;;8.77;6.28;;;15.60;99.90;;;;;;5073325;28;20028;-66
2021/09/01 00:53:43;;;;;;;8.65;6.65;;;15.50;99.90;;;;;;5055257;28;20025;-64
2021/09/01 00:56:17;;;;;;;10.85;6.97;;;15.60;99.90;;;;;;5055351;28;20032;-63
2021/09/01 00:58:45;;;;;;;8.40;6.25;;;15.60;99.90;;;;;;5073217;28;20028;-64
2021/09/01 01:01:17;;;;;;;8.23;6.65;;;15.60;99.90;;;;;;5073103;28;20076;-63
2021/09/01 01:03:50;;;;;;;12.90;5.97;;;15.70;99.90;;;;;;5072455;28;20024;-63
2021/09/01 01:06:29;;;;;;;9.85;5.72;;;15.70;99.90;;;;;;5073182;28;20028;-64
2021/09/01 01:08:56;;;;;;;8.82;4.88;;;15.70;99.90;;;;;;5072748;28;20370;-63
2021/09/01 01:11:23;;;;;;;7.35;5.85;;;15.70;99.90;;;;;;5072818;28;20380;-65
2021/09/01 01:13:49;;;;;;;6.30;5.50;;;15.70;99.90;;;;;;5073290;28;20033;-62
2021/09/01 01:16:21;;;;;;;8.02;5.25;;;15.70;99.90;;;;;;5073065;28;20024;-65
2021/09/01 01:18:47;;;;;;;7.25;5.63;;;15.70;99.90;;;;;;5072985;28;20546;-63
2021/09/01 01:21:21;;;;;;;7.82;5.15;;;15.60;99.90;;;;;;5054931;28;20020;-64
2021/09/01 01:23:59;;;;;;;9.68;4.93;;;15.60;99.90;;;;;;5072920;28;20020;-64
2021/09/01 01:26:26;;;;;;;6.35;5.03;;;15.50;99.90;;;;;;5054945;28;20036;-64
2021/09/01 01:28:57;;;;;;;4.50;3.88;;;15.50;99.90;;;;;;5072872;28;20079;-64
2021/09/01 01:31:24;;;;;;;8.63;4.57;;;15.50;99.90;;;;;;5072902;28;20028;-64
2021/09/01 01:33:50;;;;;;;7.03;4.40;;;15.50;99.90;;;;;;5072833;28;20469;-63
2021/09/01 01:36:16;;;;;;;7.40;5.47;;;15.60;99.90;;;;;;5054869;28;20029;-64
2021/09/01 01:38:42;;;;;;;6.72;4.22;;;15.70;99.90;;;;;;5072553;28;20043;-64
2021/09/01 01:41:08;;;;;;;6.10;4.43;;;15.70;99.90;;;;;;5054710;28;20119;-64
2021/09/01 01:43:38;;;;;;;6.20;4.00;;;15.80;99.90;;;;;;5054731;28;20155;-64
2021/09/01 01:46:07;;;;;;;5.72;4.53;;;15.90;99.90;;;;;;5072733;28;20082;-64
2021/09/01 01:48:35;;;;;;;9.10;4.28;;;15.90;99.90;;;;;;5072647;28;20090;-63
2021/09/01 01:51:02;;;;;;;4.20;3.80;;;16.00;99.90;;;;;;5072368;28;20358;-64
2021/09/01 01:53:29;;;;;;;4.50;3.85;;;16.00;99.90;;;;;;5072635;28;20026;-63
2021/09/01 01:55:55;;;;;;;5.32;4.07;;;16.10;99.90;;;;;;5072382;28;20020;-63
2021/09/01 01:58:21;;;;;;;7.22;4.57;;;16.10;99.90;;;;;;5072855;28;20025;-63
2021/09/01 02:00:47;;;;;;;13.35;5.60;;;16.10;99.90;;;;;;5072326;28;20044;-64
2021/09/01 02:03:13;;;;;;;6.57;4.60;;;16.20;99.90;;;;;;5072534;28;20419;-63
2021/09/01 02:05:39;;;;;;;5.00;4.05;;;16.20;99.90;;;;;;5054502;28;20043;-63
2021/09/01 02:08:05;;;;;;;6.63;4.47;;;16.20;99.90;;;;;;5072528;28;20020;-63
2021/09/01 02:10:31;;;;;;;4.32;3.63;;;16.20;99.90;;;;;;5072471;28;20029;-63
2021/09/01 02:12:57;;;;;;;4.13;3.78;;;16.10;99.90;;;;;;5072476;28;20081;-63
2021/09/01 02:15:23;;;;;;;4.60;3.90;;;16.10;99.90;;;;;;5074042;28;20108;-63
2021/09/01 02:17:49;;;;;;;6.15;3.85;;;16.10;99.90;;;;;;5076112;28;20029;-65
2021/09/01 02:20:16;;;;;;;5.68;3.60;;;16.10;99.90;;;;;;5076346;28;20036;-65
2021/09/01 02:22:42;;;;;;;7.05;3.72;;;16.10;99.90;;;;;;5076061;28;20028;-63
2021/09/01 02:25:10;;;;;;;6.28;3.95;;;16.20;99.90;;;;;;5076084;28;20040;-63
2021/09/01 02:27:36;;;;;;;6.70;3.70;;;16.20;99.90;;;;;;5075956;28;20055;-63
2021/09/01 02:30:05;;;;;;;9.73;4.22;;;16.20;99.90;;;;;;5057889;28;20032;-63
2021/09/01 02:32:31;;;;;;;6.00;3.83;;;16.20;99.90;;;;;;5075864;28;20028;-66
2021/09/01 02:34:57;;;;;;;9.45;4.38;;;16.20;99.90;;;;;;5057868;28;20028;-67
2021/09/01 02:37:23;;;;;;;7.72;4.20;;;16.10;99.90;;;;;;5075809;28;20021;-66
2021/09/01 02:39:49;;;;;;;6.05;3.80;;;16.10;99.90;;;;;;5057701;28;20032;-65
2021/09/01 02:42:15;;;;;;;9.38;3.80;;;16.10;99.90;;;;;;5075716;28;20070;-65
2021/09/01 02:44:41;;;;;;;7.93;4.32;;;16.10;99.90;;;;;;5075639;28;20024;-66
2021/09/01 02:47:07;;;;;;;5.50;3.95;;;16.10;99.90;;;;;;5075334;28;20408;-65
2021/09/01 02:49:33;;;;;;;7.40;3.97;;;16.10;99.90;;;;;;5057520;28;20086;-65
2021/09/01 02:52:03;;;;;;;7.28;3.85;;;16.10;99.90;;;;;;5075233;28;20032;-66
2021/09/01 02:54:29;;;;;;;5.22;4.10;;;16.20;99.90;;;;;;5075996;28;20032;-66
2021/09/01 02:56:55;;;;;;;8.45;4.68;;;16.10;99.90;;;;;;5075494;28;20090;-63
2021/09/01 02:59:20;;;;;;;6.20;4.25;;;16.10;99.90;;;;;;5075364;28;20523;-63
2021/09/01 03:01:46;;;;;;;5.60;3.50;;;16.10;99.90;;;;;;5074885;28;20049;-64
2021/09/01 03:04:12;;;;;;;9.15;3.90;;;16.10;99.90;;;;;;5075547;28;20466;-66
2021/09/01 03:06:38;;;;;;;7.95;4.40;;;16.10;99.90;;;;;;5075012;28;20029;-63
2021/09/01 03:09:04;;;;;;;3.85;3.22;;;16.10;99.90;;;;;;5074863;28;20044;-66
2021/09/01 03:11:29;;;;;;;4.93;3.83;;;16.10;99.90;;;;;;5074958;28;20430;-63
2021/09/01 03:13:55;;;;;;;6.07;4.07;;;16.10;99.90;;;;;;5074792;28;20060;-63
2021/09/01 03:16:21;;;;;;;3.90;3.30;;;16.10;99.90;;;;;;5057123;28;20111;-64
2021/09/01 03:18:47;;;;;;;7.10;3.47;;;16.00;99.90;;;;;;5057050;28;20381;-63
2021/09/01 03:21:13;;;;;;;5.82;3.38;;;16.10;99.90;;;;;;5074973;28;20029;-64
2021/09/01 03:23:39;;;;;;;4.00;3.33;;;16.10;99.90;;;;;;5074932;28;20032;-63
2021/09/01 03:26:05;;;;;;;6.35;3.58;;;16.10;99.90;;;;;;5074361;28;20055;-63
2021/09/01 03:28:31;;;;;;;3.58;3.10;;;16.10;99.90;;;;;;5056616;28;20082;-64
2021/09/01 03:30:57;;;;;;;6.43;3.72;;;16.10;99.90;;;;;;5074775;28;20024;-64
2021/09/01 03:33:23;;;;;;;3.60;3.30;;;16.10;99.90;;;;;;5056692;28;20021;-64
2021/09/01 03:35:49;;;;;;;8.35;3.83;;;16.10;99.90;;;;;;5056736;28;20032;-64
2021/09/01 03:38:15;;;;;;;6.38;4.22;;;16.10;99.90;;;;;;5074659;28;20017;-64
2021/09/01 03:40:42;;;;;;;4.72;3.42;;;16.10;99.90;;;;;;5074631;28;20478;-64
2021/09/01 03:43:09;;;;;;;4.20;3.20;;;16.10;99.90;;;;;;5074512;28;20095;-64
2021/09/01 03:45:36;;;;;;;6.03;3.47;;;16.10;99.90;;;;;;5074576;28;20039;-64
2021/09/01 03:48:02;;;;;;;6.18;3.40;;;16.20;99.90;;;;;;5056424;28;20063;-65
2021/09/01 03:50:28;;;;;;;6.13;3.28;;;16.10;99.90;;;;;;5074344;28;20033;-64
2021/09/01 03:52:54;;;;;;;7.22;3.55;;;16.10;99.90;;;;;;5056369;28;20052;-64
2021/09/01 03:55:20;;;;;;;5.35;3.28;;;16.10;99.90;;;;;;5074558;28;20154;-64
2021/09/01 03:57:47;;;;;;;4.95;3.58;;;16.10;99.90;;;;;;5073938;28;20024;-64
2021/09/01 04:00:14;;;;;;;3.67;3.38;;;16.10;99.90;;;;;;5074211;28;20032;-64
2021/09/01 04:02:40;;;;;;;6.47;3.58;;;16.10;99.90;;;;;;5074291;28;20058;-64
2021/09/01 04:05:07;;;;;;;6.13;3.88;;;16.10;99.90;;;;;;5074098;28;20032;-64
2021/09/01 04:07:33;;;;;;;7.85;3.15;;;16.00;99.90;;;;;;5056152;28;20526;-64
2021/09/01 04:09:59;;;;;;;3.65;3.22;;;16.10;99.90;;;;;;5073912;28;20048;-64
2021/09/01 04:12:24;;;;;;;5.07;3.28;;;16.00;99.90;;;;;;5074057;28;20029;-64
2021/09/01 04:14:50;;;;;;;9.15;3.47;;;16.00;99.90;;;;;;5073851;28;20035;-64
2021/09/01 04:17:16;;;;;;;4.07;3.55;;;16.00;99.90;;;;;;5073918;28;20032;-64
2021/09/01 04:19:42;;;;;;;4.88;3.50;;;16.00;99.90;;;;;;5073764;28;20028;-64
2021/09/01 04:22:08;;;;;;;5.70;3.28;;;16.00;99.90;;;;;;5055734;28;20056;-63
2021/09/01 04:24:40;;;;;;;5.18;3.22;;;15.90;99.90;;;;;;5073679;28;20540;-64
2021/09/01 04:27:06;;;;;;;6.40;3.70;;;15.90;99.90;;;;;;5073774;28;20028;-63
2021/09/01 04:29:31;;;;;;;6.40;3.58;;;15.90;99.90;;;;;;5073570;28;20396;-64
2021/09/01 04:31:57;;;;;;;4.72;3.75;;;15.80;99.90;;;;;;5073604;28;20029;-64
2021/09/01 04:34:23;;;;;;;5.60;3.40;;;15.80;99.90;;;;;;5073521;28;20101;-63
2021/09/01 04:36:49;;;;;;;8.20;3.92;;;15.80;99.90;;;;;;5073510;28;20362;-64
2021/09/01 04:39:15;;;;;;;4.90;3.47;;;15.80;99.90;;;;;;5073444;28;20036;-63
2021/09/01 04:41:41;;;;;;;7.88;3.72;;;15.80;99.90;;;;;;5073668;28;20044;-64
2021/09/01 04:44:07;;;;;;;8.00;4.05;;;15.70;99.90;;;;;;5073360;28;20462;-64
2021/09/01 04:46:32;;;;;;;10.45;3.90;;;15.80;99.90;;;;;;5073344;28;20115;-63
2021/09/01 04:48:58;;;;;;;4.20;3.50;;;15.80;99.90;;;;;;5072933;28;20024;-64
2021/09/01 04:51:24;;;;;;;4.88;3.05;;;15.80;99.90;;;;;;5073299;28;20028;-63
2021/09/01 04:53:50;;;;;;;4.18;3.67;;;15.90;99.90;;;;;;5073184;28;20020;-63
2021/09/01 04:56:16;;;;;;;3.95;2.90;;;15.90;99.90;;;;;;5073274;28;20036;-64
2021/09/01 04:58:42;;;;;;;5.15;3.45;;;15.90;99.90;;;;;;5072796;28;20032;-63
2021/09/01 05:01:08;;;;;;;4.70;3.30;;;16.00;99.90;;;;;;5054735;28;20105;-63
2021/09/01 05:03:33;;;;;;;5.32;3.45;;;16.10;99.90;;;;;;5073297;28;20100;-63
2021/09/01 05:05:59;;;;;;;5.53;3.03;;;16.10;99.90;;;;;;5073013;28;20039;-64
2021/09/01 05:08:25;;;;;;;6.03;3.53;;;16.20;99.90;;;;;;5072642;28;20032;-64
2021/09/01 05:10:51;;;;;;;5.38;3.88;;;16.20;99.90;;;;;;5072794;28;20096;-64
2021/09/01 05:13:17;;;;;;;6.18;3.80;;;16.30;99.90;;;;;;5054807;28;20035;-64
2021/09/01 05:15:43;;;;;;;5.28;3.53;;;16.30;99.90;;;;;;5072738;28;20029;-64
2021/09/01 05:18:09;;;;;;;7.93;3.72;;;16.30;99.90;;;;;;5072558;28;20040;-65
2021/09/01 05:20:38;;;;;;;5.82;3.35;;;16.40;99.90;;;;;;5072234;28;20036;-64
2021/09/01 05:23:06;;;;;;;4.35;2.78;;;16.50;99.90;;;;;;5072751;28;20086;-65
2021/09/01 05:25:49;;;;;;;3.22;2.63;;;16.70;99.90;;;;;;5054659;28;20427;-65
2021/09/01 05:28:18;;;;;;;4.72;3.17;;;16.80;99.90;;;;;;5072682;28;20474;-66
2021/09/01 05:30:47;;;;;;;5.25;3.00;;;17.00;99.90;;;;;;5054696;28;20043;-68
2021/09/01 05:33:13;;;;;;;3.45;3.15;;;17.20;99.90;;;;;;5072776;28;20023;-66
2021/09/01 05:35:40;;;;;;;3.40;2.97;;;17.30;99.90;;;;;;5072623;28;20389;-66
2021/09/01 05:38:07;;;;;;;3.97;2.88;;;17.40;99.90;;;;;;5054764;28;20389;-66
2021/09/01 05:40:34;;;;;;;5.07;3.30;;;17.50;99.90;;;;;;5072716;28;20036;-65
2021/09/01 05:43:00;;;;;;;6.00;2.88;;;17.50;99.90;;;;;;5072681;28;20021;-67
2021/09/01 05:45:27;;;;;;;5.53;2.60;;;17.60;99.90;;;;;;5072236;28;20086;-65
2021/09/01 05:47:56;;;;;;;4.32;3.28;;;17.70;99.90;;;;;;5072389;28;20469;-66
2021/09/01 05:50:23;;;;;;;2.83;2.40;;;17.80;99.90;;;;;;5074201;28;20473;-66
2021/09/01 05:52:50;;;;;;;8.73;2.60;;;17.80;99.90;;;;;;5076132;28;20447;-66
2021/09/01 05:55:16;;;;;;;4.43;2.78;;;17.80;99.90;;;;;;5057967;28;20024;-66
2021/09/01 05:57:45;;;;;;;3.75;3.20;;;17.80;99.90;;;;;;5075897;28;20034;-67
2021/09/01 06:00:13;;;;;;;3.90;2.83;;;17.80;99.90;;;;;;5058463;28;20028;-66
2021/09/01 06:03:03;;;;;;;7.63;2.80;;;17.80;99.90;;;;;;5075863;28;20128;-67
2021/09/01 06:05:30;;;;;;;4.57;2.97;;;17.90;99.90;;;;;;5076434;28;20032;-66
2021/09/01 06:07:58;;;;;;;5.15;2.70;;;18.10;99.90;;;;;;5076082;28;20017;-66
2021/09/01 06:10:30;;;;;;;4.00;2.60;;;18.10;99.90;;;;;;5076197;28;20086;-67
2021/09/01 06:13:03;;;;;;;8.13;2.75;;;18.10;99.90;;;;;;5058329;28;20024;-66
2021/09/01 06:15:31;;;;;;;2.90;2.60;;;18.10;99.90;;;;;;5076302;28;20053;-66
2021/09/01 06:17:58;;;;;;;3.33;3.00;;;18.10;99.90;;;;;;5076001;28;20029;-66
2021/09/01 06:20:24;;;;;;;5.05;3.05;;;18.20;99.90;;;;;;5075927;28;20461;-67
2021/09/01 06:22:50;;;;;;;4.72;3.38;;;18.20;99.90;;;;;;5057889;28;20365;-67
2021/09/01 06:25:16;;;;;;;8.23;3.97;;;18.20;99.90;;;;;;5075958;28;20039;-66
2021/09/01 06:27:42;;;;;;;4.70;2.97;;;18.30;99.90;;;;;;5075947;28;20127;-66
2021/09/01 06:30:08;;;;;;;4.60;3.22;;;18.30;99.90;;;;;;5057625;28;20032;-66
2021/09/01 06:32:34;;;;;;;3.88;3.25;;;18.30;99.90;;;;;;5057168;28;20119;-66
2021/09/01 06:35:00;;;;;;;6.25;4.07;;;18.40;99.90;;;;;;5075779;28;20103;-66
2021/09/01 06:37:26;;;;;;;9.13;3.90;;;18.40;99.90;;;;;;5075857;28;20056;-66
2021/09/01 06:39:53;;;;;;;7.57;3.60;;;18.50;99.90;;;;;;5057719;28;20071;-66
2021/09/01 06:42:20;;;;;;;11.30;4.38;;;18.40;99.80;;;;;;5075642;28;20028;-66
2021/09/01 06:44:46;;;;;;;4.20;3.75;;;18.50;99.90;;;;;;5075610;28;20103;-66
2021/09/01 06:47:12;;;;;;;6.00;4.38;;;18.60;99.90;;;;;;5075675;28;20025;-66
2021/09/01 06:49:38;;;;;;;6.00;4.03;;;18.80;99.90;;;;;;5057505;28;20186;-66
2021/09/01 06:52:04;;;;;;;5.05;2.83;;;18.80;99.90;;;;;;5057545;28;20089;-66
2021/09/01 06:54:30;;;;;;;4.93;3.53;;;18.90;98.40;;;;;;5075167;28;20811;-66
2021/09/01 06:56:56;;;;;;;10.15;5.72;;;19.00;99.20;;;;;;5057522;28;20119;-67
2021/09/01 06:59:22;;;;;;;4.80;3.97;;;19.10;97.70;;;;;;5075652;28;20028;-66
2021/09/01 07:01:48;;;;;;;10.13;3.88;;;19.30;96.70;;;;;;5073709;28;20497;-67
2021/09/01 07:04:14;;;;;;;5.10;3.40;;;19.40;97.30;;;;;;5075287;28;20443;-66
2021/09/01 07:06:40;;;;;;;6.85;3.15;;;19.40;97.10;;;;;;5057218;28;20431;-66
2021/09/01 07:09:06;;;;;;;7.63;3.40;;;19.60;96.10;;;;;;5056751;28;20036;-67
2021/09/01 07:11:32;;;;;;;6.03;3.80;;;19.70;96.20;;;;;;5075046;28;20464;-66
2021/09/01 07:13:57;;;;;;;6.00;3.70;;;19.70;95.40;;;;;;5057063;28;20024;-66
2021/09/01 07:16:24;;;;;;;12.27;4.57;;;19.60;95.30;;;;;;5074174;28;20028;-66
2021/09/01 07:18:50;;;;;;;4.40;3.30;;;19.60;94.40;;;;;;5074984;28;20115;-66
2021/09/01 07:21:16;;;;;;;11.48;5.38;;;19.70;95.70;;;;;;5074434;28;20081;-66
2021/09/01 07:23:43;;;;;;;5.47;3.58;;;19.90;94.30;;;;;;5056413;28;20036;-67
2021/09/01 07:26:10;;;;;;;10.43;5.68;;;20.10;94.60;;;;;;5056685;28;20028;-67
2021/09/01 07:28:38;;;;;;;6.55;4.93;;;20.10;92.90;;;;;;5074798;28;20017;-66
2021/09/01 07:31:05;;;;;;;4.18;3.45;;;20.20;93.70;;;;;;5074763;28;20025;-67
2021/09/01 07:33:31;;;;;;;4.72;3.72;;;20.20;92.50;;;;;;5074640;28;20039;-67
2021/09/01 07:35:57;;;;;;;7.22;3.88;;;20.20;91.80;;;;;;5074016;28;20488;-67
2021/09/01 07:38:23;;;;;;;9.25;4.82;;;20.20;91.70;;;;;;5055586;28;20025;-67
2021/09/01 07:40:49;;;;;;;12.95;5.88;;;20.30;92.00;;;;;;5053551;28;20469;-67
2021/09/01 07:43:14;;;;;;;9.52;5.78;;;20.30;91.30;;;;;;5073699;28;20028;-67
2021/09/01 07:45:42;;;;;;;12.57;8.68;;;20.20;91.50;;;;;;5074242;28;20033;-67
2021/09/01 07:48:12;;;;;;;8.98;7.07;;;20.20;91.50;;;;;;5056252;28;20556;-67
2021/09/01 07:50:38;;;;;;;7.10;5.10;;;20.40;91.70;;;;;;5073608;28;20112;-67
2021/09/01 07:53:04;;;;;;;5.78;4.38;;;20.50;91.70;;;;;;5056094;28;20119;-67
2021/09/01 07:55:30;;;;;;;8.35;4.15;;;20.50;92.00;;;;;;5073952;28;20473;-67
2021/09/01 07:57:56;;;;;;;4.88;4.28;;;20.40;91.30;;;;;;5073771;28;20024;-66
2021/09/01 08:00:22;;;;;;;12.63;4.57;;;20.40;91.30;;;;;;5073536;28;20039;-68
2021/09/01 08:02:50;;;;;;;11.00;4.82;;;20.40;91.60;;;;;;5073668;28;20477;-67
2021/09/01 08:05:15;;;;;;;6.82;3.78;;;20.50;90.90;;;;;;5073661;28;20039;-66
2021/09/01 08:07:41;;;;;;;6.57;3.10;;;20.60;90.30;;;;;;5073900;28;20025;-67
2021/09/01 08:10:08;;;;;;;3.38;3.08;;;20.60;91.00;;;;;;5073529;28;20358;-66
2021/09/01 08:12:34;;;;;;;6.05;3.28;;;20.80;90.50;;;;;;5055145;28;20066;-66
2021/09/01 08:14:59;;;;;;;5.13;3.20;;;21.00;90.10;;;;;;5055339;28;20064;-67
2021/09/01 08:17:25;;;;;;;4.88;3.15;;;21.00;88.50;;;;;;5073622;28;20043;-67
2021/09/01 08:19:51;;;;;;;8.07;3.50;;;21.10;88.80;;;;;;5073622;28;20036;-65
2021/09/01 08:22:17;;;;;;;11.15;4.25;;;21.20;87.60;;;;;;5073864;28;20036;-64
2021/09/01 08:24:43;;;;;;;7.07;3.58;;;21.20;85.40;;;;;;5073406;28;20032;-65
2021/09/01 08:27:11;;;;;;;19.73;5.63;;;20.90;86.60;;;;;;5073414;28;20025;-65
2021/09/01 08:29:38;;;;;;;10.45;5.55;;;20.60;85.10;;;;;;5073395;28;20041;-66
2021/09/01 08:32:05;;;;;;;8.07;5.80;;;20.40;87.40;;;;;;5073146;28;20047;-66
2021/09/01 08:34:31;;;;;;;9.40;5.25;;;20.30;88.10;;;;;;5072588;28;20448;-66
2021/09/01 08:36:59;;;;;;;6.13;4.43;;;20.30;88.60;;;;;;5073190;28;20094;-66
2021/09/01 08:39:25;;;;;;;8.23;4.07;;;20.30;88.90;;;;;;5073499;28;20083;-66
2021/09/01 08:41:52;;;;;;;7.57;5.10;;;20.30;89.10;;;;;;5072986;28;20472;-65
2021/09/01 08:44:18;;;;;;;10.25;5.00;;;20.40;87.50;;;;;;5073007;28;20027;-65
2021/09/01 08:46:49;;;;;;;6.88;4.25;;;20.30;87.80;;;;;;5072871;28;20108;-65
2021/09/01 08:49:16;;;;;;;;;;;20.30;88.00;;;;;;5073544;28;20469;-67
2021/09/01 08:51:42;;;;;;;6.57;4.05;;;20.40;88.00;;;;;;5055086;28;19905;-68
2021/09/01 08:54:08;;;;;;;8.05;4.72;;;20.30;87.80;;;;;;5073053;28;20025;-66
2021/09/01 08:56:34;;;;;;;7.05;5.15;;;20.30;87.80;;;;;;5072846;28;20035;-65
2021/09/01 08:59:00;;;;;;;8.05;4.32;;;20.30;88.00;;;;;;5054803;28;20119;-67
2021/09/01 09:01:47;;;;;;;8.82;4.20;;;20.20;88.50;;;;;;5072405;28;20431;-66
2021/09/01 09:04:18;;;;;;;4.80;3.88;;;20.30;87.70;;;;;;5072003;28;20020;-69
2021/09/01 09:06:56;;;;;;;4.63;3.63;;;20.40;86.50;;;;;;5072575;28;20497;-68
2021/09/01 09:09:26;;;;;;;5.70;4.25;;;20.50;86.50;;;;;;5053786;28;20037;-68
2021/09/01 09:11:56;;;;;;;5.53;4.17;;;20.50;86.70;;;;;;5072429;28;20025;-68
2021/09/01 09:14:29;;;;;;;5.72;3.95;;;20.50;85.50;;;;;;5054766;28;20023;-67
2021/09/01 09:17:07;;;;;;;7.50;3.60;;;20.40;85.90;;;;;;5055104;28;20640;-67
2021/09/01 09:19:46;;;;;;;8.80;5.22;;;20.40;85.20;;;;;;5072939;28;20039;-68
2021/09/01 09:22:13;;;;;;;6.90;5.03;;;20.50;86.00;;;;;;5072604;28;20121;-68
2021/09/01 09:24:39;;;;;;;5.50;3.88;;;20.80;85.70;;;;;;5071974;28;20111;-69
2021/09/01 09:27:08;;;;;;;4.63;3.22;;;20.90;85.50;;;;;;5072610;28;20120;-68
2021/09/01 09:29:34;;;;;;;10.65;4.05;;;21.10;83.80;;;;;;5072607;28;20047;-66
2021/09/01 09:32:06;;;;;;;4.50;3.22;;;21.30;85.20;;;;;;5072673;28;20025;-68
2021/09/01 09:34:37;;;;;;;7.85;3.78;;;21.40;83.00;;;;;;5072770;28;20028;-66
2021/09/01 09:37:08;;;;;;;3.67;3.35;;;21.40;82.90;;;;;;5072763;28;20025;-69
2021/09/01 09:39:40;;;;;;;5.07;3.63;;;21.70;83.80;;;;;;5073161;28;20036;-67
2021/09/01 09:42:05;;;;;;;10.15;3.60;;;22.10;82.10;;;;;;5053373;28;20028;-70
2021/09/01 09:44:31;;;;;;;3.65;3.13;;;21.90;81.80;;;;;;5054716;28;20033;-69
2021/09/01 09:46:57;;;;;;;12.50;3.90;;;22.30;81.20;;;;;;5071668;28;20036;-68
2021/09/01 09:49:28;;;;;;;8.48;3.50;;;22.40;79.10;;;;;;5054395;28;20063;-67
2021/09/01 09:51:54;;;;;;;5.00;3.30;;;22.60;78.60;;;;;;5070553;28;20020;-66
2021/09/01 09:54:25;;;;;;;6.47;3.35;;;23.00;80.40;;;;;;5071579;28;20036;-65
2021/09/01 09:57:04;;;;;;;9.85;3.95;;;23.00;77.70;;;;;;5072268;28;20438;-66
2021/09/01 09:59:33;;;;;;;15.48;3.45;;;22.90;76.60;;;;;;5054404;28;20039;-69
2021/09/01 10:01:59;;;;;;;4.95;3.03;;;22.70;72.60;;;;;;5054404;28;20503;-68
2021/09/01 10:04:27;;;;;;;4.03;2.80;;;23.10;74.20;;;;;;5072835;28;20457;-69
2021/09/01 10:06:53;;;;;;;5.95;2.70;;;23.30;73.40;;;;;;5072530;28;20583;-68
2021/09/01 10:09:20;;;;;;;4.35;2.90;;;23.60;73.10;;;;;;5054339;28;20036;-68
2021/09/01 10:11:48;;;;;;;4.28;2.58;;;23.30;72.20;;;;;;5070583;28;20440;-68
2021/09/01 10:14:24;;;;;;;7.68;3.55;;;23.00;69.80;;;;;;5070712;28;20492;-65
2021/09/01 10:17:07;;;;;;;6.53;4.28;;;23.40;69.90;;;;;;5072156;28;20025;-66
2021/09/01 10:19:35;;;;;;;8.25;4.00;;;23.80;69.10;;;;;;5054380;28;20032;-66
2021/09/01 10:22:03;;;;;;;4.75;3.08;;;23.70;69.20;;;;;;5072297;28;20021;-67
2021/09/01 10:24:32;;;;;;;4.28;2.90;;;23.70;68.60;;;;;;5054238;28;20031;-67
2021/09/01 10:27:03;;;;;;;3.38;2.78;;;24.30;68.90;;;;;;5072318;28;20087;-67
2021/09/01 10:29:47;;;;;;;3.35;3.00;;;25.00;67.80;;;;;;5054286;28;20542;-67
2021/09/01 10:32:24;;;;;;;7.60;4.25;;;24.40;67.30;;;;;;5072329;28;20024;-68
2021/09/01 10:35:16;;;;;;;5.13;4.32;;;23.20;67.30;;;;;;5072344;28;20040;-65
2021/09/01 10:37:50;;;;;;;6.07;3.70;;;24.80;68.10;;;;;;5057677;28;20020;-66
2021/09/01 10:40:22;;;;;;;5.68;4.05;;;24.40;65.80;;;;;;5072074;28;20040;-65
2021/09/01 10:42:49;;;;;;;5.05;3.25;;;24.90;65.30;;;;;;5073840;28;20060;-67
2021/09/01 10:45:17;;;;;;;10.68;3.80;;;24.30;62.40;;;;;;5057116;28;20055;-66
2021/09/01 10:48:13;;;;;;;7.95;4.30;;;24.30;65.60;;;;;;5075362;28;20025;-67
2021/09/01 10:50:46;;;;;;;8.15;4.45;;;24.50;64.00;;;;;;5047612;28;20102;-68
2021/09/01 10:53:36;;;;;;;6.20;3.22;;;23.90;65.00;;;;;;5075329;28;20032;-66
2021/09/01 10:56:13;;;;;;;5.82;3.17;;;25.20;62.90;;;;;;5075262;28;20052;-66
2021/09/01 10:58:41;;;;;;;5.75;3.60;;;25.80;55.90;;;;;;5075253;28;20024;-66
2021/09/01 11:01:08;;;;;;;6.97;3.20;;;25.70;56.80;;;;;;5074776;28;20052;-67
2021/09/01 11:03:36;;;;;;;9.35;3.00;;;26.20;55.90;;;;;;5075351;28;20056;-66
2021/09/01 11:06:25;;;;;;;7.05;4.00;;;26.10;56.70;;;;;;5074954;28;20051;-68
2021/09/01 11:09:12;;;;;;;7.63;4.13;;;24.30;60.30;;;;;;5074739;28;20370;-65
2021/09/01 11:11:41;;;;;;;7.30;4.10;;;24.20;61.30;;;;;;5057146;28;20029;-66
2021/09/01 11:14:06;;;;;;;5.35;3.10;;;25.90;58.90;;;;;;5075222;28;20111;-66
2021/09/01 11:16:32;;;;;;;9.20;3.72;;;26.50;58.50;;;;;;5075151;28;20509;-69
2021/09/01 11:19:05;;;;;;;6.07;3.88;;;27.10;57.70;;;;;;5075893;28;20031;-68
2021/09/01 11:22:01;;;;;;;8.02;3.28;;;28.50;55.30;;;;;;5075269;28;20024;-69
2021/09/01 11:24:26;;;;;;;6.40;2.97;;;29.00;53.00;;;;;;5055181;28;20048;-67
2021/09/01 11:26:57;;;;;;;9.02;3.58;;;27.50;52.30;;;;;;5057222;28;20025;-68
2021/09/01 11:29:33;;;;;;;6.03;3.60;;;26.50;54.40;;;;;;5075519;28;20467;-67
2021/09/01 11:32:00;;;;;;;3.50;2.97;;;27.80;52.50;;;;;;5074912;28;20249;-68
2021/09/01 11:34:26;;;;;;;5.43;3.20;;;29.00;51.40;;;;;;5057544;28;20036;-69
2021/09/01 11:36:52;;;;;;;4.35;3.33;;;29.40;50.20;;;;;;5057429;28;20465;-67
2021/09/01 11:39:18;;;;;;;6.63;3.67;;;28.30;51.30;;;;;;5075012;28;20492;-68
2021/09/01 11:41:45;;;;;;;4.97;3.42;;;27.50;52.00;;;;;;5075468;28;20384;-67
2021/09/01 11:44:13;;;;;;;7.25;4.03;;;26.10;55.10;;;;;;5056754;28;20029;-68
2021/09/01 11:46:40;;;;;;;5.43;3.88;;;24.70;57.40;;;;;;5075022;28;20070;-67
2021/09/01 11:49:11;;;;;;;11.02;6.28;;;24.20;59.10;;;;;;5074442;28;20036;-67
2021/09/01 11:51:41;;;;;;;7.47;3.60;;;27.40;55.30;;;;;;5075078;28;20032;-67
2021/09/01 11:54:08;;;;;;;5.40;3.30;;;28.00;53.30;;;;;;5074838;28;20111;-67
2021/09/01 11:56:34;;;;;;;8.82;3.17;;;30.00;51.20;;;;;;5056397;28;20469;-67
2021/09/01 11:59:03;;;;;;;3.63;3.22;;;29.70;50.30;;;;;;5074109;28;20354;-68
2021/09/01 12:01:32;;;;;;;4.80;3.35;;;31.20;49.80;;;;;;5073661;28;20052;-67
2021/09/01 12:03:59;;;;;;;6.65;3.75;;;31.50;48.30;;;;;;5073763;28;20028;-68
2021/09/01 12:06:42;;;;;;;5.20;3.42;;;32.10;48.20;;;;;;5055899;28;20135;-68
2021/09/01 12:09:13;;;;;;;5.38;3.53;;;29.30;49.30;;;;;;5074181;28;20025;-71
2021/09/01 12:11:56;;;;;;;4.03;3.30;;;27.60;51.80;;;;;;5073845;28;20381;-70
2021/09/01 12:14:25;;;;;;;5.32;3.47;;;29.60;52.40;;;;;;5055878;28;20032;-67
2021/09/01 12:16:54;;;;;;;4.32;3.08;;;29.60;50.50;;;;;;5073501;28;20493;-73
2021/09/01 12:19:21;;;;;;;5.65;3.70;;;30.00;49.40;;;;;;5073430;28;20028;-68
2021/09/01 12:21:55;;;;;;;5.72;3.40;;;30.20;51.70;;;;;;5073263;28;20060;-67
2021/09/01 12:24:24;;;;;;;4.55;3.33;;;29.20;49.90;;;;;;5055693;28;20055;-68
2021/09/01 12:27:07;;;;;;;8.30;4.43;;;28.20;53.10;;;;;;5055717;28;20358;-69
2021/09/01 12:29:45;;;;;;;8.48;3.35;;;28.00;54.90;;;;;;5073619;28;20029;-66
2021/09/01 12:32:22;;;;;;;5.18;3.60;;;26.60;54.50;;;;;;5073707;28;20032;-67
2021/09/01 12:35:03;;;;;;;6.95;3.35;;;27.30;59.30;;;;;;5073669;28;20055;-69
2021/09/01 12:37:32;;;;;;;4.55;3.25;;;27.80;55.60;;;;;;5073516;28;20024;-69
2021/09/01 12:40:00;;;;;;;8.27;3.28;;;26.80;54.00;;;;;;5073574;28;20032;-69
2021/09/01 12:42:32;;;;;;;5.18;3.50;;;26.20;56.40;;;;;;5073409;28;20469;-70
2021/09/01 12:45:05;;;;;;;5.90;3.47;;;25.60;57.00;;;;;;5073453;28;20071;-68
2021/09/01 12:47:31;;;;;;;5.20;3.65;;;25.00;58.10;;;;;;5073407;28;20048;-69
2021/09/01 12:50:00;;;;;;;5.35;3.83;;;24.40;60.70;;;;;;5073303;28;20036;-66
2021/09/01 12:52:26;;;;;;;8.23;3.55;;;23.80;62.10;;;;;;5073304;28;20036;-68